sensor_id;sensor_type;location;lat;lon;timestamp;P1;durP1;ratioP1;P2;durP2;ratioP2
63284;SDS011;49409;55.708;37.522;2022-10-16T00:01:03;4.65;;;2.38;;
63284;SDS011;49409;55.708;37.522;2022-10-16T00:03:37;5.38;;;2.60;;
63284;SDS011;49409;55.708;37.522;2022-10-16T00:06:07;8.48;;;3.10;;
63284;SDS011;49409;55.708;37.522;2022-10-16T00:08:34;5.45;;;2.92;;
63284;SDS011;49409;55.708;37.522;2022-10-16T00:11:02;7.07;;;2.90;;
63284;SDS011;49409;55.708;37.522;2022-10-16T00:13:30;7.15;;;2.90;;
63284;SDS011;49409;55.708;37.522;2022-10-16T00:15:57;7.68;;;3.15;;
63284;SDS011;49409;55.708;37.522;2022-10-16T00:18:24;7.57;;;2.95;;
63284;SDS011;49409;55.708;37.522;2022-10-16T00:20:50;7.22;;;2.85;;
63284;SDS011;49409;55.708;37.522;2022-10-16T00:23:15;9.00;;;2.88;;
63284;SDS011;49409;55.708;37.522;2022-10-16T00:25:41;5.85;;;2.50;;
63284;SDS011;49409;55.708;37.522;2022-10-16T00:28:06;7.00;;;2.45;;
63284;SDS011;49409;55.708;37.522;2022-10-16T00:30:32;5.15;;;2.65;;
63284;SDS011;49409;55.708;37.522;2022-10-16T00:32:57;6.50;;;2.60;;
63284;SDS011;49409;55.708;37.522;2022-10-16T00:35:23;5.88;;;2.60;;
63284;SDS011;49409;55.708;37.522;2022-10-16T00:37:48;7.00;;;2.70;;
63284;SDS011;49409;55.708;37.522;2022-10-16T00:40:14;5.03;;;2.42;;
63284;SDS011;49409;55.708;37.522;2022-10-16T00:42:40;5.00;;;2.25;;
63284;SDS011;49409;55.708;37.522;2022-10-16T00:45:05;6.43;;;2.55;;
63284;SDS011;49409;55.708;37.522;2022-10-16T00:50:05;4.88;;;2.60;;
63284;SDS011;49409;55.708;37.522;2022-10-16T00:52:34;6.25;;;3.05;;
63284;SDS011;49409;55.708;37.522;2022-10-16T00:55:02;6.65;;;2.40;;
63284;SDS011;49409;55.708;37.522;2022-10-16T00:57:29;5.95;;;2.60;;
63284;SDS011;49409;55.708;37.522;2022-10-16T00:59:55;5.10;;;2.45;;
63284;SDS011;49409;55.708;37.522;2022-10-16T01:02:21;5.20;;;2.72;;
63284;SDS011;49409;55.708;37.522;2022-10-16T01:04:48;5.25;;;2.75;;
63284;SDS011;49409;55.708;37.522;2022-10-16T01:15:53;5.70;;;2.45;;
63284;SDS011;49409;55.708;37.522;2022-10-16T01:21:10;6.82;;;2.97;;
63284;SDS011;49409;55.708;37.522;2022-10-16T01:28:56;5.38;;;2.63;;
63284;SDS011;49409;55.708;37.522;2022-10-16T01:31:29;6.85;;;3.40;;
63284;SDS011;49409;55.708;37.522;2022-10-16T01:34:00;5.53;;;2.57;;
63284;SDS011;49409;55.708;37.522;2022-10-16T01:36:40;5.70;;;2.80;;
63284;SDS011;49409;55.708;37.522;2022-10-16T01:39:10;4.80;;;2.72;;
63284;SDS011;49409;55.708;37.522;2022-10-16T01:41:41;4.68;;;2.55;;
63284;SDS011;49409;55.708;37.522;2022-10-16T01:44:12;6.18;;;3.00;;
63284;SDS011;49409;55.708;37.522;2022-10-16T01:46:46;6.43;;;2.83;;
63284;SDS011;49409;55.708;37.522;2022-10-16T01:49:15;4.55;;;2.42;;
63284;SDS011;49409;55.708;37.522;2022-10-16T01:51:42;6.18;;;2.80;;
63284;SDS011;49409;55.708;37.522;2022-10-16T01:54:11;6.35;;;3.35;;
63284;SDS011;49409;55.708;37.522;2022-10-16T01:56:40;5.70;;;2.80;;
63284;SDS011;49409;55.708;37.522;2022-10-16T01:59:09;6.82;;;3.15;;
63284;SDS011;49409;55.708;37.522;2022-10-16T02:01:39;6.15;;;2.95;;
63284;SDS011;49409;55.708;37.522;2022-10-16T02:04:29;7.03;;;3.17;;
63284;SDS011;49409;55.708;37.522;2022-10-16T02:06:56;5.50;;;2.65;;
63284;SDS011;49409;55.708;37.522;2022-10-16T02:09:22;6.38;;;2.63;;
63284;SDS011;49409;55.708;37.522;2022-10-16T02:11:48;5.47;;;2.33;;
63284;SDS011;49409;55.708;37.522;2022-10-16T02:14:16;5.80;;;2.90;;
63284;SDS011;49409;55.708;37.522;2022-10-16T02:16:43;5.25;;;2.78;;
63284;SDS011;49409;55.708;37.522;2022-10-16T02:19:11;6.70;;;2.80;;
63284;SDS011;49409;55.708;37.522;2022-10-16T02:21:43;5.35;;;2.70;;
63284;SDS011;49409;55.708;37.522;2022-10-16T02:26:57;5.40;;;2.78;;
63284;SDS011;49409;55.708;37.522;2022-10-16T02:29:31;6.50;;;2.70;;
63284;SDS011;49409;55.708;37.522;2022-10-16T02:32:01;5.07;;;2.67;;
63284;SDS011;49409;55.708;37.522;2022-10-16T02:34:30;6.15;;;2.97;;
63284;SDS011;49409;55.708;37.522;2022-10-16T02:36:58;7.20;;;3.60;;
63284;SDS011;49409;55.708;37.522;2022-10-16T02:39:27;5.18;;;2.85;;
63284;SDS011;49409;55.708;37.522;2022-10-16T02:41:53;4.00;;;2.70;;
63284;SDS011;49409;55.708;37.522;2022-10-16T02:44:19;6.53;;;3.00;;
63284;SDS011;49409;55.708;37.522;2022-10-16T02:46:45;6.13;;;3.10;;
63284;SDS011;49409;55.708;37.522;2022-10-16T02:49:10;6.72;;;2.75;;
63284;SDS011;49409;55.708;37.522;2022-10-16T02:51:36;5.80;;;2.90;;
63284;SDS011;49409;55.708;37.522;2022-10-16T02:54:02;6.43;;;3.03;;
63284;SDS011;49409;55.708;37.522;2022-10-16T02:56:28;5.68;;;2.63;;
63284;SDS011;49409;55.708;37.522;2022-10-16T02:58:55;6.32;;;2.78;;
63284;SDS011;49409;55.708;37.522;2022-10-16T03:01:20;6.22;;;2.63;;
63284;SDS011;49409;55.708;37.522;2022-10-16T03:03:46;4.50;;;2.42;;
63284;SDS011;49409;55.708;37.522;2022-10-16T03:06:11;4.70;;;2.55;;
63284;SDS011;49409;55.708;37.522;2022-10-16T03:08:37;6.65;;;2.90;;
63284;SDS011;49409;55.708;37.522;2022-10-16T03:11:02;5.97;;;2.83;;
63284;SDS011;49409;55.708;37.522;2022-10-16T03:13:28;5.90;;;2.70;;
63284;SDS011;49409;55.708;37.522;2022-10-16T03:15:53;6.28;;;2.85;;
63284;SDS011;49409;55.708;37.522;2022-10-16T03:18:19;6.35;;;2.78;;
63284;SDS011;49409;55.708;37.522;2022-10-16T03:20:44;7.43;;;3.13;;
63284;SDS011;49409;55.708;37.522;2022-10-16T03:23:10;5.38;;;2.88;;
63284;SDS011;49409;55.708;37.522;2022-10-16T03:25:35;8.13;;;2.80;;
63284;SDS011;49409;55.708;37.522;2022-10-16T03:28:01;7.03;;;2.88;;
63284;SDS011;49409;55.708;37.522;2022-10-16T03:30:27;5.82;;;2.47;;
63284;SDS011;49409;55.708;37.522;2022-10-16T03:32:52;6.30;;;2.83;;
63284;SDS011;49409;55.708;37.522;2022-10-16T03:35:21;7.82;;;3.03;;
63284;SDS011;49409;55.708;37.522;2022-10-16T03:37:48;7.40;;;2.30;;
63284;SDS011;49409;55.708;37.522;2022-10-16T03:40:14;7.03;;;3.10;;
63284;SDS011;49409;55.708;37.522;2022-10-16T03:42:40;5.72;;;2.78;;
63284;SDS011;49409;55.708;37.522;2022-10-16T03:45:07;7.10;;;3.22;;
63284;SDS011;49409;55.708;37.522;2022-10-16T03:47:32;7.30;;;3.15;;
63284;SDS011;49409;55.708;37.522;2022-10-16T03:49:58;8.13;;;3.13;;
63284;SDS011;49409;55.708;37.522;2022-10-16T03:52:25;7.60;;;2.75;;
63284;SDS011;49409;55.708;37.522;2022-10-16T03:54:51;7.10;;;2.80;;
63284;SDS011;49409;55.708;37.522;2022-10-16T03:57:16;7.82;;;3.10;;
63284;SDS011;49409;55.708;37.522;2022-10-16T03:59:42;7.88;;;2.92;;
63284;SDS011;49409;55.708;37.522;2022-10-16T04:02:08;6.57;;;2.75;;
63284;SDS011;49409;55.708;37.522;2022-10-16T04:04:34;5.05;;;2.80;;
63284;SDS011;49409;55.708;37.522;2022-10-16T04:06:59;7.13;;;2.83;;
63284;SDS011;49409;55.708;37.522;2022-10-16T04:09:25;7.20;;;3.33;;
63284;SDS011;49409;55.708;37.522;2022-10-16T04:11:51;5.93;;;3.05;;
63284;SDS011;49409;55.708;37.522;2022-10-16T04:14:16;6.68;;;3.05;;
63284;SDS011;49409;55.708;37.522;2022-10-16T04:16:42;6.47;;;2.95;;
63284;SDS011;49409;55.708;37.522;2022-10-16T04:19:08;5.70;;;3.25;;
63284;SDS011;49409;55.708;37.522;2022-10-16T04:21:34;6.70;;;3.40;;
63284;SDS011;49409;55.708;37.522;2022-10-16T04:24:00;6.95;;;2.92;;
63284;SDS011;49409;55.708;37.522;2022-10-16T04:26:25;6.40;;;3.00;;
63284;SDS011;49409;55.708;37.522;2022-10-16T04:28:51;6.90;;;2.88;;
63284;SDS011;49409;55.708;37.522;2022-10-16T04:31:16;5.78;;;2.83;;
63284;SDS011;49409;55.708;37.522;2022-10-16T04:33:42;6.43;;;3.05;;
63284;SDS011;49409;55.708;37.522;2022-10-16T04:36:08;6.00;;;2.72;;
63284;SDS011;49409;55.708;37.522;2022-10-16T04:38:33;4.93;;;2.92;;
63284;SDS011;49409;55.708;37.522;2022-10-16T04:40:59;6.68;;;2.78;;
63284;SDS011;49409;55.708;37.522;2022-10-16T04:43:24;5.88;;;3.03;;
63284;SDS011;49409;55.708;37.522;2022-10-16T04:45:50;5.97;;;2.80;;
63284;SDS011;49409;55.708;37.522;2022-10-16T04:48:17;5.30;;;2.60;;
63284;SDS011;49409;55.708;37.522;2022-10-16T04:50:43;8.32;;;2.90;;
63284;SDS011;49409;55.708;37.522;2022-10-16T04:53:09;5.95;;;2.83;;
63284;SDS011;49409;55.708;37.522;2022-10-16T04:55:34;6.57;;;2.90;;
63284;SDS011;49409;55.708;37.522;2022-10-16T04:58:00;5.85;;;2.90;;
63284;SDS011;49409;55.708;37.522;2022-10-16T05:00:25;5.53;;;3.50;;
63284;SDS011;49409;55.708;37.522;2022-10-16T05:02:51;8.63;;;3.63;;
63284;SDS011;49409;55.708;37.522;2022-10-16T05:05:16;7.15;;;3.65;;
63284;SDS011;49409;55.708;37.522;2022-10-16T05:07:44;8.43;;;3.00;;
63284;SDS011;49409;55.708;37.522;2022-10-16T05:10:10;5.65;;;3.28;;
63284;SDS011;49409;55.708;37.522;2022-10-16T05:12:36;8.20;;;3.40;;
63284;SDS011;49409;55.708;37.522;2022-10-16T05:15:01;5.65;;;3.05;;
63284;SDS011;49409;55.708;37.522;2022-10-16T05:17:27;7.25;;;3.10;;
63284;SDS011;49409;55.708;37.522;2022-10-16T05:19:52;6.50;;;3.10;;
63284;SDS011;49409;55.708;37.522;2022-10-16T05:22:18;9.65;;;3.60;;
63284;SDS011;49409;55.708;37.522;2022-10-16T05:24:43;7.47;;;3.42;;
63284;SDS011;49409;55.708;37.522;2022-10-16T05:27:09;5.68;;;3.20;;
63284;SDS011;49409;55.708;37.522;2022-10-16T05:29:35;4.75;;;2.85;;
63284;SDS011;49409;55.708;37.522;2022-10-16T05:32:01;6.10;;;2.97;;
63284;SDS011;49409;55.708;37.522;2022-10-16T05:34:26;7.35;;;3.45;;
63284;SDS011;49409;55.708;37.522;2022-10-16T05:36:52;5.55;;;2.85;;
63284;SDS011;49409;55.708;37.522;2022-10-16T05:39:17;5.60;;;2.65;;
63284;SDS011;49409;55.708;37.522;2022-10-16T05:41:43;5.70;;;3.28;;
63284;SDS011;49409;55.708;37.522;2022-10-16T05:44:09;7.65;;;3.25;;
63284;SDS011;49409;55.708;37.522;2022-10-16T05:46:35;6.15;;;3.17;;
63284;SDS011;49409;55.708;37.522;2022-10-16T05:49:01;7.38;;;3.22;;
63284;SDS011;49409;55.708;37.522;2022-10-16T05:51:26;5.80;;;3.00;;
63284;SDS011;49409;55.708;37.522;2022-10-16T05:53:52;5.82;;;3.13;;
63284;SDS011;49409;55.708;37.522;2022-10-16T05:56:17;7.32;;;3.70;;
63284;SDS011;49409;55.708;37.522;2022-10-16T05:58:43;7.35;;;3.78;;
63284;SDS011;49409;55.708;37.522;2022-10-16T06:01:12;6.53;;;3.67;;
63284;SDS011;49409;55.708;37.522;2022-10-16T06:03:40;6.97;;;3.67;;
63284;SDS011;49409;55.708;37.522;2022-10-16T06:06:07;7.10;;;3.85;;
63284;SDS011;49409;55.708;37.522;2022-10-16T06:08:33;7.75;;;3.92;;
63284;SDS011;49409;55.708;37.522;2022-10-16T06:11:06;9.32;;;4.35;;
63284;SDS011;49409;55.708;37.522;2022-10-16T06:13:33;5.90;;;3.38;;
63284;SDS011;49409;55.708;37.522;2022-10-16T06:15:59;7.63;;;4.10;;
63284;SDS011;49409;55.708;37.522;2022-10-16T06:18:26;8.98;;;3.92;;
63284;SDS011;49409;55.708;37.522;2022-10-16T06:20:52;7.20;;;4.20;;
63284;SDS011;49409;55.708;37.522;2022-10-16T06:23:18;6.95;;;3.70;;
63284;SDS011;49409;55.708;37.522;2022-10-16T06:25:44;8.98;;;4.65;;
63284;SDS011;49409;55.708;37.522;2022-10-16T06:28:10;7.53;;;4.30;;
63284;SDS011;49409;55.708;37.522;2022-10-16T06:30:35;8.32;;;4.03;;
63284;SDS011;49409;55.708;37.522;2022-10-16T06:33:01;7.72;;;4.05;;
63284;SDS011;49409;55.708;37.522;2022-10-16T06:35:26;8.43;;;4.25;;
63284;SDS011;49409;55.708;37.522;2022-10-16T06:37:55;6.93;;;3.92;;
63284;SDS011;49409;55.708;37.522;2022-10-16T06:40:20;8.48;;;3.97;;
63284;SDS011;49409;55.708;37.522;2022-10-16T06:42:46;8.30;;;3.95;;
63284;SDS011;49409;55.708;37.522;2022-10-16T06:45:11;7.88;;;3.65;;
63284;SDS011;49409;55.708;37.522;2022-10-16T06:47:37;8.48;;;3.83;;
63284;SDS011;49409;55.708;37.522;2022-10-16T06:50:03;6.22;;;3.63;;
63284;SDS011;49409;55.708;37.522;2022-10-16T06:52:31;7.38;;;4.10;;
63284;SDS011;49409;55.708;37.522;2022-10-16T06:54:57;6.93;;;3.78;;
63284;SDS011;49409;55.708;37.522;2022-10-16T06:57:22;10.48;;;4.13;;
63284;SDS011;49409;55.708;37.522;2022-10-16T06:59:48;7.78;;;3.92;;
63284;SDS011;49409;55.708;37.522;2022-10-16T07:02:13;8.18;;;4.20;;
63284;SDS011;49409;55.708;37.522;2022-10-16T07:04:38;8.68;;;3.97;;
63284;SDS011;49409;55.708;37.522;2022-10-16T07:07:04;11.13;;;3.95;;
63284;SDS011;49409;55.708;37.522;2022-10-16T07:09:30;6.03;;;3.65;;
63284;SDS011;49409;55.708;37.522;2022-10-16T07:11:55;10.60;;;4.35;;
63284;SDS011;49409;55.708;37.522;2022-10-16T07:14:21;9.18;;;3.72;;
63284;SDS011;49409;55.708;37.522;2022-10-16T07:16:47;8.10;;;3.63;;
63284;SDS011;49409;55.708;37.522;2022-10-16T07:19:13;7.40;;;3.78;;
63284;SDS011;49409;55.708;37.522;2022-10-16T07:21:40;7.97;;;3.90;;
63284;SDS011;49409;55.708;37.522;2022-10-16T07:24:07;8.05;;;3.63;;
63284;SDS011;49409;55.708;37.522;2022-10-16T07:26:36;7.40;;;3.88;;
63284;SDS011;49409;55.708;37.522;2022-10-16T07:29:04;8.10;;;3.78;;
63284;SDS011;49409;55.708;37.522;2022-10-16T07:31:31;9.40;;;4.10;;
63284;SDS011;49409;55.708;37.522;2022-10-16T07:33:58;8.32;;;3.65;;
63284;SDS011;49409;55.708;37.522;2022-10-16T07:36:24;7.38;;;3.70;;
63284;SDS011;49409;55.708;37.522;2022-10-16T07:38:50;7.68;;;3.75;;
63284;SDS011;49409;55.708;37.522;2022-10-16T07:41:16;8.43;;;3.85;;
63284;SDS011;49409;55.708;37.522;2022-10-16T07:43:46;11.02;;;5.03;;
63284;SDS011;49409;55.708;37.522;2022-10-16T07:46:13;6.32;;;3.30;;
63284;SDS011;49409;55.708;37.522;2022-10-16T07:48:39;7.30;;;3.88;;
63284;SDS011;49409;55.708;37.522;2022-10-16T07:51:05;5.35;;;3.20;;
63284;SDS011;49409;55.708;37.522;2022-10-16T07:53:32;7.03;;;3.75;;
63284;SDS011;49409;55.708;37.522;2022-10-16T07:55:59;9.02;;;3.47;;
63284;SDS011;49409;55.708;37.522;2022-10-16T07:58:25;6.25;;;3.92;;
63284;SDS011;49409;55.708;37.522;2022-10-16T08:00:51;7.47;;;3.65;;
63284;SDS011;49409;55.708;37.522;2022-10-16T08:03:17;9.75;;;3.47;;
63284;SDS011;49409;55.708;37.522;2022-10-16T08:05:42;8.70;;;3.97;;
63284;SDS011;49409;55.708;37.522;2022-10-16T08:08:11;8.38;;;3.70;;
63284;SDS011;49409;55.708;37.522;2022-10-16T08:10:38;7.72;;;3.80;;
63284;SDS011;49409;55.708;37.522;2022-10-16T08:13:04;7.13;;;3.70;;
63284;SDS011;49409;55.708;37.522;2022-10-16T08:15:29;8.15;;;4.03;;
63284;SDS011;49409;55.708;37.522;2022-10-16T08:17:59;7.47;;;3.45;;
63284;SDS011;49409;55.708;37.522;2022-10-16T08:22:52;7.25;;;3.65;;
63284;SDS011;49409;55.708;37.522;2022-10-16T08:25:19;6.75;;;3.65;;
63284;SDS011;49409;55.708;37.522;2022-10-16T08:27:45;9.10;;;3.80;;
63284;SDS011;49409;55.708;37.522;2022-10-16T08:30:11;7.88;;;3.78;;
63284;SDS011;49409;55.708;37.522;2022-10-16T08:32:37;10.23;;;4.22;;
63284;SDS011;49409;55.708;37.522;2022-10-16T08:35:02;8.38;;;3.65;;
63284;SDS011;49409;55.708;37.522;2022-10-16T08:37:31;5.47;;;3.03;;
63284;SDS011;49409;55.708;37.522;2022-10-16T08:39:58;4.97;;;3.22;;
63284;SDS011;49409;55.708;37.522;2022-10-16T08:45:34;6.88;;;3.13;;
63284;SDS011;49409;55.708;37.522;2022-10-16T08:48:20;5.40;;;2.95;;
63284;SDS011;49409;55.708;37.522;2022-10-16T08:50:52;7.20;;;2.67;;
63284;SDS011;49409;55.708;37.522;2022-10-16T08:53:36;7.53;;;3.45;;
63284;SDS011;49409;55.708;37.522;2022-10-16T08:56:18;8.48;;;3.15;;
63284;SDS011;49409;55.708;37.522;2022-10-16T08:58:44;6.50;;;2.95;;
63284;SDS011;49409;55.708;37.522;2022-10-16T09:01:13;7.65;;;3.33;;
63284;SDS011;49409;55.708;37.522;2022-10-16T09:09:18;5.93;;;2.75;;
63284;SDS011;49409;55.708;37.522;2022-10-16T09:12:17;5.78;;;2.40;;
63284;SDS011;49409;55.708;37.522;2022-10-16T09:18:06;4.97;;;2.33;;
63284;SDS011;49409;55.708;37.522;2022-10-16T09:23:19;7.57;;;2.60;;
63284;SDS011;49409;55.708;37.522;2022-10-16T09:25:50;5.18;;;2.22;;
63284;SDS011;49409;55.708;37.522;2022-10-16T09:28:16;5.57;;;2.38;;
63284;SDS011;49409;55.708;37.522;2022-10-16T09:30:43;6.50;;;2.40;;
63284;SDS011;49409;55.708;37.522;2022-10-16T09:33:10;4.50;;;2.00;;
63284;SDS011;49409;55.708;37.522;2022-10-16T09:35:42;4.18;;;2.03;;
63284;SDS011;49409;55.708;37.522;2022-10-16T09:38:20;4.05;;;1.95;;
63284;SDS011;49409;55.708;37.522;2022-10-16T09:41:01;5.90;;;1.95;;
63284;SDS011;49409;55.708;37.522;2022-10-16T09:43:40;5.65;;;2.30;;
63284;SDS011;49409;55.708;37.522;2022-10-16T09:46:33;4.53;;;2.13;;
63284;SDS011;49409;55.708;37.522;2022-10-16T09:49:03;5.13;;;2.20;;
63284;SDS011;49409;55.708;37.522;2022-10-16T09:51:43;7.55;;;2.10;;
63284;SDS011;49409;55.708;37.522;2022-10-16T09:56:35;4.00;;;1.95;;
63284;SDS011;49409;55.708;37.522;2022-10-16T09:59:20;4.22;;;2.00;;
63284;SDS011;49409;55.708;37.522;2022-10-16T10:04:14;3.58;;;2.00;;
63284;SDS011;49409;55.708;37.522;2022-10-16T10:06:42;5.15;;;2.05;;
63284;SDS011;49409;55.708;37.522;2022-10-16T10:11:52;3.63;;;2.00;;
63284;SDS011;49409;55.708;37.522;2022-10-16T10:14:20;4.82;;;2.13;;
63284;SDS011;49409;55.708;37.522;2022-10-16T10:22:17;4.68;;;2.20;;
63284;SDS011;49409;55.708;37.522;2022-10-16T10:30:29;4.72;;;2.25;;
63284;SDS011;49409;55.708;37.522;2022-10-16T10:33:16;3.72;;;1.77;;
63284;SDS011;49409;55.708;37.522;2022-10-16T10:39:01;3.17;;;2.10;;
63284;SDS011;49409;55.708;37.522;2022-10-16T10:47:41;6.65;;;2.10;;
63284;SDS011;49409;55.708;37.522;2022-10-16T10:50:14;5.20;;;2.30;;
63284;SDS011;49409;55.708;37.522;2022-10-16T10:53:02;4.85;;;2.80;;
63284;SDS011;49409;55.708;37.522;2022-10-16T10:59:16;3.50;;;1.73;;
63284;SDS011;49409;55.708;37.522;2022-10-16T11:02:10;5.53;;;2.17;;
63284;SDS011;49409;55.708;37.522;2022-10-16T11:07:16;3.97;;;1.90;;
63284;SDS011;49409;55.708;37.522;2022-10-16T11:10:04;4.85;;;2.58;;
63284;SDS011;49409;55.708;37.522;2022-10-16T11:12:55;4.93;;;1.90;;
63284;SDS011;49409;55.708;37.522;2022-10-16T11:15:40;4.32;;;2.10;;
63284;SDS011;49409;55.708;37.522;2022-10-16T11:18:15;5.35;;;2.30;;
63284;SDS011;49409;55.708;37.522;2022-10-16T11:20:51;3.65;;;1.90;;
63284;SDS011;49409;55.708;37.522;2022-10-16T11:23:23;3.42;;;2.13;;
63284;SDS011;49409;55.708;37.522;2022-10-16T11:25:50;3.63;;;2.22;;
63284;SDS011;49409;55.708;37.522;2022-10-16T11:30:57;4.53;;;2.38;;
63284;SDS011;49409;55.708;37.522;2022-10-16T11:33:30;6.47;;;2.20;;
63284;SDS011;49409;55.708;37.522;2022-10-16T11:39:19;3.53;;;1.73;;
63284;SDS011;49409;55.708;37.522;2022-10-16T11:41:39;4.97;;;2.13;;
63284;SDS011;49409;55.708;37.522;2022-10-16T11:46:40;4.85;;;2.05;;
63284;SDS011;49409;55.708;37.522;2022-10-16T11:49:20;3.38;;;2.00;;
63284;SDS011;49409;55.708;37.522;2022-10-16T11:52:03;3.90;;;1.85;;
63284;SDS011;49409;55.708;37.522;2022-10-16T11:55:14;5.40;;;2.17;;
63284;SDS011;49409;55.708;37.522;2022-10-16T11:57:26;4.25;;;1.95;;
63284;SDS011;49409;55.708;37.522;2022-10-16T12:04:53;5.03;;;2.30;;
63284;SDS011;49409;55.708;37.522;2022-10-16T12:07:54;3.42;;;1.90;;
63284;SDS011;49409;55.708;37.522;2022-10-16T12:10:36;4.63;;;1.85;;
63284;SDS011;49409;55.708;37.522;2022-10-16T12:13:03;4.25;;;2.05;;
63284;SDS011;49409;55.708;37.522;2022-10-16T12:15:30;3.85;;;2.00;;
63284;SDS011;49409;55.708;37.522;2022-10-16T12:17:58;6.88;;;2.40;;
63284;SDS011;49409;55.708;37.522;2022-10-16T12:20:29;5.10;;;2.28;;
63284;SDS011;49409;55.708;37.522;2022-10-16T12:25:25;5.07;;;1.90;;
63284;SDS011;49409;55.708;37.522;2022-10-16T12:28:17;7.95;;;2.15;;
63284;SDS011;49409;55.708;37.522;2022-10-16T12:30:52;3.03;;;1.80;;
63284;SDS011;49409;55.708;37.522;2022-10-16T12:33:38;4.68;;;2.08;;
63284;SDS011;49409;55.708;37.522;2022-10-16T12:36:13;3.13;;;1.95;;
63284;SDS011;49409;55.708;37.522;2022-10-16T12:38:57;4.28;;;2.00;;
63284;SDS011;49409;55.708;37.522;2022-10-16T12:41:31;5.22;;;2.10;;
63284;SDS011;49409;55.708;37.522;2022-10-16T12:43:59;3.70;;;1.95;;
63284;SDS011;49409;55.708;37.522;2022-10-16T12:49:37;6.18;;;2.00;;
63284;SDS011;49409;55.708;37.522;2022-10-16T12:51:57;4.40;;;2.13;;
63284;SDS011;49409;55.708;37.522;2022-10-16T13:00:10;3.85;;;2.40;;
63284;SDS011;49409;55.708;37.522;2022-10-16T13:11:10;5.13;;;1.92;;
63284;SDS011;49409;55.708;37.522;2022-10-16T13:21:50;4.90;;;2.33;;
63284;SDS011;49409;55.708;37.522;2022-10-16T13:27:20;5.43;;;2.47;;
63284;SDS011;49409;55.708;37.522;2022-10-16T13:30:17;3.63;;;2.05;;
63284;SDS011;49409;55.708;37.522;2022-10-16T13:32:49;3.90;;;1.88;;
63284;SDS011;49409;55.708;37.522;2022-10-16T13:35:25;5.28;;;2.13;;
63284;SDS011;49409;55.708;37.522;2022-10-16T13:38:08;4.47;;;2.03;;
63284;SDS011;49409;55.708;37.522;2022-10-16T13:40:36;6.90;;;2.67;;
63284;SDS011;49409;55.708;37.522;2022-10-16T13:43:12;4.57;;;2.40;;
63284;SDS011;49409;55.708;37.522;2022-10-16T13:45:38;4.60;;;2.40;;
63284;SDS011;49409;55.708;37.522;2022-10-16T13:48:04;6.40;;;2.42;;
63284;SDS011;49409;55.708;37.522;2022-10-16T13:50:31;6.00;;;2.45;;
63284;SDS011;49409;55.708;37.522;2022-10-16T13:53:04;3.63;;;2.00;;
63284;SDS011;49409;55.708;37.522;2022-10-16T13:55:37;6.38;;;2.70;;
63284;SDS011;49409;55.708;37.522;2022-10-16T13:58:13;5.40;;;2.35;;
63284;SDS011;49409;55.708;37.522;2022-10-16T14:00:39;8.82;;;2.83;;
63284;SDS011;49409;55.708;37.522;2022-10-16T14:03:18;4.38;;;2.38;;
63284;SDS011;49409;55.708;37.522;2022-10-16T14:05:49;3.97;;;2.28;;
63284;SDS011;49409;55.708;37.522;2022-10-16T14:08:17;7.10;;;2.55;;
63284;SDS011;49409;55.708;37.522;2022-10-16T14:10:42;4.97;;;2.70;;
63284;SDS011;49409;55.708;37.522;2022-10-16T14:13:15;8.57;;;2.72;;
63284;SDS011;49409;55.708;37.522;2022-10-16T14:15:48;6.57;;;2.67;;
63284;SDS011;49409;55.708;37.522;2022-10-16T14:18:18;7.75;;;2.63;;
63284;SDS011;49409;55.708;37.522;2022-10-16T14:20:46;4.57;;;2.30;;
63284;SDS011;49409;55.708;37.522;2022-10-16T14:23:21;6.28;;;2.42;;
63284;SDS011;49409;55.708;37.522;2022-10-16T14:25:49;5.47;;;2.97;;
63284;SDS011;49409;55.708;37.522;2022-10-16T14:28:18;4.50;;;2.25;;
63284;SDS011;49409;55.708;37.522;2022-10-16T14:30:53;6.47;;;2.90;;
63284;SDS011;49409;55.708;37.522;2022-10-16T14:33:31;5.40;;;2.70;;
63284;SDS011;49409;55.708;37.522;2022-10-16T14:36:05;7.90;;;3.08;;
63284;SDS011;49409;55.708;37.522;2022-10-16T14:38:56;9.15;;;3.00;;
63284;SDS011;49409;55.708;37.522;2022-10-16T14:41:22;5.93;;;3.17;;
63284;SDS011;49409;55.708;37.522;2022-10-16T14:43:50;7.22;;;3.08;;
63284;SDS011;49409;55.708;37.522;2022-10-16T14:46:19;6.80;;;2.75;;
63284;SDS011;49409;55.708;37.522;2022-10-16T14:48:59;6.25;;;3.42;;
63284;SDS011;49409;55.708;37.522;2022-10-16T14:51:28;8.25;;;3.22;;
63284;SDS011;49409;55.708;37.522;2022-10-16T14:53:54;6.47;;;3.53;;
63284;SDS011;49409;55.708;37.522;2022-10-16T14:56:23;8.57;;;3.60;;
63284;SDS011;49409;55.708;37.522;2022-10-16T14:58:52;9.07;;;3.53;;
63284;SDS011;49409;55.708;37.522;2022-10-16T15:01:18;9.43;;;3.47;;
63284;SDS011;49409;55.708;37.522;2022-10-16T15:03:44;7.22;;;3.60;;
63284;SDS011;49409;55.708;37.522;2022-10-16T15:06:13;7.53;;;3.75;;
63284;SDS011;49409;55.708;37.522;2022-10-16T15:08:40;6.40;;;3.03;;
63284;SDS011;49409;55.708;37.522;2022-10-16T15:11:16;5.65;;;2.95;;
63284;SDS011;49409;55.708;37.522;2022-10-16T15:13:44;6.72;;;3.20;;
63284;SDS011;49409;55.708;37.522;2022-10-16T15:16:11;6.88;;;3.35;;
63284;SDS011;49409;55.708;37.522;2022-10-16T15:18:37;6.35;;;2.97;;
63284;SDS011;49409;55.708;37.522;2022-10-16T15:21:03;7.97;;;3.28;;
63284;SDS011;49409;55.708;37.522;2022-10-16T15:23:28;6.55;;;3.45;;
63284;SDS011;49409;55.708;37.522;2022-10-16T15:25:55;5.22;;;3.13;;
63284;SDS011;49409;55.708;37.522;2022-10-16T15:28:21;5.15;;;2.67;;
63284;SDS011;49409;55.708;37.522;2022-10-16T15:30:49;5.15;;;2.85;;
63284;SDS011;49409;55.708;37.522;2022-10-16T15:33:17;5.95;;;2.97;;
63284;SDS011;49409;55.708;37.522;2022-10-16T15:35:51;6.00;;;3.25;;
63284;SDS011;49409;55.708;37.522;2022-10-16T15:38:18;5.55;;;2.92;;
63284;SDS011;49409;55.708;37.522;2022-10-16T15:40:45;6.00;;;2.80;;
63284;SDS011;49409;55.708;37.522;2022-10-16T15:43:11;4.10;;;2.50;;
63284;SDS011;49409;55.708;37.522;2022-10-16T15:45:37;4.38;;;2.40;;
63284;SDS011;49409;55.708;37.522;2022-10-16T15:48:02;6.85;;;3.08;;
63284;SDS011;49409;55.708;37.522;2022-10-16T15:50:29;6.05;;;2.97;;
63284;SDS011;49409;55.708;37.522;2022-10-16T15:52:55;6.20;;;2.75;;
63284;SDS011;49409;55.708;37.522;2022-10-16T15:55:21;5.60;;;2.40;;
63284;SDS011;49409;55.708;37.522;2022-10-16T15:57:47;7.22;;;2.95;;
63284;SDS011;49409;55.708;37.522;2022-10-16T16:00:16;7.30;;;2.90;;
63284;SDS011;49409;55.708;37.522;2022-10-16T16:02:49;6.90;;;3.22;;
63284;SDS011;49409;55.708;37.522;2022-10-16T16:05:17;6.20;;;3.08;;
63284;SDS011;49409;55.708;37.522;2022-10-16T16:07:42;5.68;;;2.90;;
63284;SDS011;49409;55.708;37.522;2022-10-16T16:10:09;4.65;;;2.30;;
63284;SDS011;49409;55.708;37.522;2022-10-16T16:12:35;4.88;;;2.85;;
63284;SDS011;49409;55.708;37.522;2022-10-16T16:15:02;6.72;;;2.75;;
63284;SDS011;49409;55.708;37.522;2022-10-16T16:17:29;6.18;;;2.50;;
63284;SDS011;49409;55.708;37.522;2022-10-16T16:19:56;7.00;;;2.83;;
63284;SDS011;49409;55.708;37.522;2022-10-16T16:22:21;6.20;;;3.28;;
63284;SDS011;49409;55.708;37.522;2022-10-16T16:24:46;5.18;;;3.15;;
63284;SDS011;49409;55.708;37.522;2022-10-16T16:27:12;5.07;;;2.72;;
63284;SDS011;49409;55.708;37.522;2022-10-16T16:29:38;7.93;;;2.83;;
63284;SDS011;49409;55.708;37.522;2022-10-16T16:32:04;6.43;;;3.30;;
63284;SDS011;49409;55.708;37.522;2022-10-16T16:34:29;6.28;;;2.90;;
63284;SDS011;49409;55.708;37.522;2022-10-16T16:36:55;6.63;;;2.58;;
63284;SDS011;49409;55.708;37.522;2022-10-16T16:39:22;6.50;;;2.60;;
63284;SDS011;49409;55.708;37.522;2022-10-16T16:41:48;4.55;;;2.45;;